Time;durP1;ratioP1;P1;durP2;ratioP2;P2;SDS_P1;SDS_P2;PMS_P1;PMS_P2;Temp;Humidity;BMP_temperature;BMP_pressure;BME280_temperature;BME280_humidity;BME280_pressure;Samples;Min_cycle;Max_cycle;Signal;HPM_P1;HPM_P2
2021/06/13 00:01:06;;;;;;;13.13;3.30;;;15.50;99.90;;;;;;4974918;28;20794;-47
2021/06/13 00:03:34;;;;;;;9.47;2.80;;;15.50;99.90;;;;;;4975023;28;20518;-47
2021/06/13 00:06:00;;;;;;;6.33;2.63;;;15.40;99.90;;;;;;4975154;28;20454;-50
2021/06/13 00:08:26;;;;;;;5.10;3.50;;;15.30;99.90;;;;;;4974925;28;20447;-46
2021/06/13 00:10:52;;;;;;;11.27;3.43;;;15.30;99.90;;;;;;4974807;28;20458;-47
2021/06/13 00:13:19;;;;;;;7.53;2.90;;;15.30;99.90;;;;;;4974832;28;20458;-47
2021/06/13 00:15:45;;;;;;;8.87;3.30;;;15.40;99.90;;;;;;4974971;28;20447;-47
2021/06/13 00:18:11;;;;;;;6.47;2.77;;;15.40;99.90;;;;;;4974602;28;20541;-50
2021/06/13 00:20:39;;;;;;;8.33;3.10;;;15.40;99.90;;;;;;4974890;28;20447;-52
2021/06/13 00:23:05;;;;;;;6.03;2.87;;;15.30;99.90;;;;;;4975017;28;20521;-49
2021/06/13 00:25:31;;;;;;;5.00;2.93;;;15.20;99.90;;;;;;4974720;28;20442;-48
2021/06/13 00:27:57;;;;;;;4.23;3.00;;;15.20;99.90;;;;;;4974830;28;20447;-48
2021/06/13 00:30:24;;;;;;;5.30;2.93;;;15.20;99.90;;;;;;4974645;28;20447;-50
2021/06/13 00:32:50;;;;;;;5.10;2.90;;;15.20;99.90;;;;;;4974510;28;20985;-51
2021/06/13 00:35:19;;;;;;;8.33;3.13;;;15.10;99.90;;;;;;4974617;28;20466;-45
2021/06/13 00:37:47;;;;;;;10.03;3.70;;;15.10;99.90;;;;;;4974499;28;20482;-51
2021/06/13 00:40:15;;;;;;;4.27;1.97;;;15.10;99.90;;;;;;4974757;28;20789;-50
2021/06/13 00:42:43;;;;;;;5.23;2.83;;;15.00;99.90;;;;;;4974419;28;20454;-48
2021/06/13 00:45:10;;;;;;;10.13;2.70;;;14.90;99.90;;;;;;4974701;28;20841;-47
2021/06/13 00:47:37;;;;;;;7.00;2.47;;;14.80;99.90;;;;;;4974760;28;20450;-47
2021/06/13 00:50:04;;;;;;;3.40;2.47;;;14.90;99.90;;;;;;4974140;28;20489;-44
2021/06/13 00:52:30;;;;;;;6.20;2.90;;;14.90;99.90;;;;;;4975422;28;20462;-44
2021/06/13 00:54:58;;;;;;;9.03;2.63;;;14.80;99.90;;;;;;4978194;28;20454;-44
2021/06/13 00:57:24;;;;;;;4.83;2.90;;;14.80;99.90;;;;;;4978263;28;20494;-45
2021/06/13 00:59:51;;;;;;;6.13;3.60;;;14.70;99.90;;;;;;4977984;28;20474;-49
2021/06/13 01:02:17;;;;;;;3.50;2.40;;;14.70;99.90;;;;;;4978155;28;20513;-51
2021/06/13 01:04:43;;;;;;;5.50;2.60;;;14.70;99.90;;;;;;4977945;28;20450;-50
2021/06/13 01:07:15;;;;;;;5.00;2.60;;;14.60;99.90;;;;;;4977962;28;20450;-47
2021/06/13 01:09:46;;;;;;;9.37;2.80;;;14.60;99.90;;;;;;4977885;28;20431;-47
2021/06/13 01:12:20;;;;;;;5.00;2.30;;;14.70;99.90;;;;;;4977812;28;20455;-52
2021/06/13 01:14:54;;;;;;;6.93;2.90;;;14.60;99.90;;;;;;4977993;28;20522;-51
2021/06/13 01:17:29;;;;;;;7.73;3.57;;;14.70;99.90;;;;;;4977811;28;20481;-44
2021/06/13 01:20:12;;;;;;;5.40;2.70;;;14.60;99.90;;;;;;4977807;28;20442;-47
2021/06/13 01:23:07;;;;;;;4.40;2.47;;;14.60;99.90;;;;;;4977899;28;20443;-46
2021/06/13 01:25:46;;;;;;;6.60;3.03;;;14.60;99.90;;;;;;4977545;28;21080;-52
2021/06/13 01:28:47;;;;;;;4.43;2.20;;;14.60;99.90;;;;;;4977455;28;20453;-49
2021/06/13 01:31:16;;;;;;;8.70;3.20;;;14.60;99.90;;;;;;4977060;28;20461;-47
2021/06/13 01:33:44;;;;;;;5.07;2.40;;;14.60;99.90;;;;;;4977234;28;20463;-50
2021/06/13 01:36:10;;;;;;;6.30;2.33;;;14.50;99.90;;;;;;4977553;28;20789;-48
2021/06/13 01:38:39;;;;;;;3.87;2.60;;;14.50;99.90;;;;;;4977515;28;20490;-46
2021/06/13 01:41:10;;;;;;;3.73;2.10;;;14.60;99.90;;;;;;4977211;28;20480;-43
2021/06/13 01:43:37;;;;;;;7.20;4.07;;;14.60;99.90;;;;;;4977136;28;20926;-49
2021/06/13 01:46:05;;;;;;;9.10;3.63;;;14.50;99.90;;;;;;4977388;28;20540;-46
2021/06/13 01:48:34;;;;;;;8.10;2.80;;;14.40;99.90;;;;;;4988042;23;20483;-46
2021/06/13 01:51:01;;;;;;;5.93;3.87;;;14.40;99.90;;;;;;5014529;23;20477;-55
2021/06/13 01:53:29;;;;;;;8.60;2.70;;;14.50;99.90;;;;;;4996583;28;20750;-52
2021/06/13 01:55:56;;;;;;;4.67;2.23;;;14.50;99.90;;;;;;4986020;28;20475;-48
2021/06/13 01:58:23;;;;;;;6.27;2.40;;;14.40;99.90;;;;;;4977182;28;20490;-53
2021/06/13 02:00:52;;;;;;;10.47;2.80;;;14.30;99.90;;;;;;4976974;28;20495;-47
2021/06/13 02:03:19;;;;;;;10.07;2.73;;;14.30;99.90;;;;;;4976943;28;20793;-46
2021/06/13 02:05:49;;;;;;;9.23;2.90;;;14.20;99.90;;;;;;4976709;28;20922;-44
2021/06/13 02:08:16;;;;;;;6.10;3.10;;;14.20;99.90;;;;;;4977022;28;20511;-44
2021/06/13 02:10:44;;;;;;;4.43;2.30;;;14.20;99.90;;;;;;4976980;28;20459;-51
2021/06/13 02:13:13;;;;;;;8.07;2.97;;;14.20;99.90;;;;;;4976613;28;20451;-49
2021/06/13 02:15:41;;;;;;;5.33;2.47;;;14.10;99.90;;;;;;4976909;28;20443;-47
2021/06/13 02:18:08;;;;;;;5.83;3.30;;;14.10;99.90;;;;;;4975843;28;20487;-49
2021/06/13 02:20:37;;;;;;;5.43;2.30;;;14.00;99.90;;;;;;4976452;28;20506;-49
2021/06/13 02:23:05;;;;;;;2.83;1.97;;;14.00;99.90;;;;;;4976730;28;20898;-46
2021/06/13 02:25:32;;;;;;;5.53;2.47;;;14.10;99.90;;;;;;4976385;28;20498;-49
2021/06/13 02:28:00;;;;;;;7.47;2.63;;;14.10;99.90;;;;;;4976588;28;20454;-46
2021/06/13 02:30:31;;;;;;;4.30;2.50;;;14.10;99.90;;;;;;4976464;28;20455;-45
2021/06/13 02:32:58;;;;;;;6.87;2.07;;;14.00;99.90;;;;;;4976669;28;20451;-43
2021/06/13 02:35:27;;;;;;;5.60;3.80;;;13.90;99.90;;;;;;4976268;28;20450;-44
2021/06/13 02:37:55;;;;;;;7.73;2.80;;;13.90;99.90;;;;;;4976289;28;20498;-47
2021/06/13 02:40:23;;;;;;;6.60;2.57;;;13.90;99.90;;;;;;4976492;28;20466;-45
2021/06/13 02:42:50;;;;;;;8.80;2.77;;;13.90;99.90;;;;;;4975865;28;20558;-46
2021/06/13 02:45:21;;;;;;;7.90;2.20;;;13.80;99.90;;;;;;4976366;28;20446;-46
2021/06/13 02:47:48;;;;;;;6.30;2.40;;;13.80;99.90;;;;;;4976049;28;20790;-50
2021/06/13 02:50:16;;;;;;;8.60;2.60;;;13.80;99.90;;;;;;4976028;28;20513;-47
2021/06/13 02:52:48;;;;;;;9.40;2.67;;;13.90;99.90;;;;;;4976251;28;20427;-49
2021/06/13 02:55:19;;;;;;;6.27;2.60;;;13.90;99.90;;;;;;4976057;28;20842;-51
2021/06/13 02:57:51;;;;;;;6.60;2.73;;;13.90;99.90;;;;;;4976143;28;20604;-48
2021/06/13 03:00:19;;;;;;;7.23;2.30;;;13.80;99.90;;;;;;4975769;28;20553;-48
2021/06/13 03:02:51;;;;;;;6.20;2.67;;;13.80;99.90;;;;;;4975910;28;20450;-45
2021/06/13 03:05:19;;;;;;;7.13;3.47;;;13.90;99.90;;;;;;4976180;28;20446;-52
2021/06/13 03:07:46;;;;;;;7.40;2.60;;;13.80;99.90;;;;;;4975695;28;20894;-48
2021/06/13 03:10:13;;;;;;;8.40;2.60;;;13.90;99.90;;;;;;4975911;28;20443;-44
2021/06/13 03:12:40;;;;;;;12.17;3.57;;;14.00;99.90;;;;;;4975710;28;20450;-47
2021/06/13 03:15:09;;;;;;;7.63;2.63;;;14.00;99.90;;;;;;4975276;28;20463;-43
2021/06/13 03:17:37;;;;;;;5.00;2.63;;;13.90;99.90;;;;;;4975442;28;20497;-46
2021/06/13 03:20:05;;;;;;;6.70;2.40;;;13.80;99.90;;;;;;4975815;28;20457;-45
2021/06/13 03:22:33;;;;;;;11.77;3.40;;;13.80;99.90;;;;;;4975767;28;20485;-49
2021/06/13 03:25:01;;;;;;;6.87;2.30;;;13.80;99.90;;;;;;4974926;28;20470;-49
2021/06/13 03:27:27;;;;;;;6.83;2.97;;;13.80;99.90;;;;;;4975373;28;20455;-51
2021/06/13 03:29:56;;;;;;;8.60;2.40;;;13.70;99.90;;;;;;4975495;28;20447;-48
2021/06/13 03:32:33;;;;;;;9.90;3.23;;;13.70;99.90;;;;;;4975377;28;20466;-50
2021/06/13 03:34:59;;;;;;;8.40;3.13;;;13.70;99.90;;;;;;4975590;28;20435;-50
2021/06/13 03:37:27;;;;;;;6.90;3.43;;;13.70;99.90;;;;;;4975164;28;20451;-49
2021/06/13 03:39:55;;;;;;;6.50;2.70;;;13.60;99.90;;;;;;4975303;28;20447;-50
2021/06/13 03:42:23;;;;;;;7.83;2.70;;;13.60;99.90;;;;;;4975101;28;20466;-46
2021/06/13 03:44:50;;;;;;;11.83;2.37;;;13.60;99.90;;;;;;4975197;28;20458;-49
2021/06/13 03:47:17;;;;;;;7.40;2.03;;;13.70;99.90;;;;;;4975292;28;20451;-47
2021/06/13 03:49:49;;;;;;;7.30;2.93;;;13.60;99.90;;;;;;4974952;28;20462;-49
2021/06/13 03:52:17;;;;;;;5.03;2.53;;;13.60;99.90;;;;;;4974868;28;20697;-46
2021/06/13 03:54:44;;;;;;;7.73;2.50;;;13.70;99.90;;;;;;4974847;28;20846;-52
2021/06/13 03:57:11;;;;;;;6.43;2.57;;;13.70;99.90;;;;;;4975169;28;20507;-50
2021/06/13 03:59:39;;;;;;;10.93;3.20;;;13.70;99.90;;;;;;4974792;28;20545;-44
2021/06/13 04:02:07;;;;;;;8.27;3.43;;;13.70;99.90;;;;;;4974828;28;20553;-51
2021/06/13 04:04:39;;;;;;;6.60;3.00;;;13.70;99.90;;;;;;4974864;28;20518;-47
2021/06/13 04:07:09;;;;;;;11.70;2.80;;;13.70;99.90;;;;;;4975107;28;20475;-45
2021/06/13 04:09:39;;;;;;;6.20;2.40;;;13.80;99.90;;;;;;4975034;28;20451;-52
2021/06/13 04:12:08;;;;;;;6.40;2.63;;;13.90;99.90;;;;;;4975084;28;20497;-49
2021/06/13 04:14:35;;;;;;;6.00;2.77;;;14.00;99.90;;;;;;4974784;28;20521;-49
2021/06/13 04:17:02;;;;;;;7.00;2.80;;;14.10;99.90;;;;;;4974878;28;20538;-50
2021/06/13 04:19:31;;;;;;;4.17;2.23;;;14.10;99.90;;;;;;4974659;28;20486;-50
2021/06/13 04:21:58;;;;;;;7.40;2.57;;;14.20;99.90;;;;;;4974829;28;20447;-49
2021/06/13 04:24:27;;;;;;;4.80;2.93;;;14.30;99.90;;;;;;4967144;28;20467;-46
2021/06/13 04:26:55;;;;;;;9.30;3.07;;;14.30;99.90;;;;;;4974525;28;20455;-45
2021/06/13 04:29:21;;;;;;;6.07;2.40;;;14.20;99.90;;;;;;4978766;28;20533;-49
2021/06/13 04:31:48;;;;;;;6.70;2.10;;;14.30;99.90;;;;;;4978379;28;20462;-46
2021/06/13 04:34:15;;;;;;;15.47;2.80;;;14.40;99.90;;;;;;4978623;28;20525;-47
2021/06/13 04:36:41;;;;;;;6.10;2.73;;;14.40;99.90;;;;;;4978455;28;20442;-48
2021/06/13 04:39:08;;;;;;;15.80;3.27;;;14.40;99.90;;;;;;4978423;28;20522;-50
2021/06/13 04:41:36;;;;;;;7.10;3.03;;;14.40;99.90;;;;;;4978544;28;20459;-50
2021/06/13 04:44:03;;;;;;;6.20;2.83;;;14.40;99.90;;;;;;4978448;28;20447;-51
2021/06/13 04:46:31;;;;;;;8.87;2.93;;;14.50;99.90;;;;;;4978612;28;20454;-48
2021/06/13 04:48:58;;;;;;;5.23;2.07;;;14.50;99.90;;;;;;4978524;28;20470;-52
2021/06/13 04:51:26;;;;;;;9.00;2.60;;;14.40;99.90;;;;;;4978117;28;20478;-47
2021/06/13 04:54:14;;;;;;;11.20;3.10;;;14.50;99.90;;;;;;4978468;28;20537;-50
2021/06/13 04:56:50;;;;;;;10.37;2.70;;;14.40;99.90;;;;;;4978167;28;20526;-45
2021/06/13 04:59:16;;;;;;;4.97;2.60;;;14.40;99.90;;;;;;4978277;28;20470;-49
2021/06/13 05:01:44;;;;;;;7.20;2.53;;;14.50;99.90;;;;;;4978335;28;20447;-46
2021/06/13 05:04:12;;;;;;;4.47;2.77;;;14.40;99.90;;;;;;4978074;28;20522;-45
2021/06/13 05:06:42;;;;;;;6.03;2.40;;;14.40;99.90;;;;;;4977893;28;20509;-49
2021/06/13 05:09:09;;;;;;;6.90;3.13;;;14.50;99.90;;;;;;4977982;28;20530;-44
2021/06/13 05:11:36;;;;;;;9.40;2.77;;;14.50;99.90;;;;;;4978105;28;20909;-50
2021/06/13 05:14:05;;;;;;;10.83;3.03;;;14.40;99.90;;;;;;4977727;28;20477;-51
2021/06/13 05:16:32;;;;;;;10.67;2.70;;;14.50;99.90;;;;;;4977901;28;20442;-45
2021/06/13 05:18:59;;;;;;;6.43;2.50;;;14.50;99.90;;;;;;4977989;28;20478;-47
2021/06/13 05:21:26;;;;;;;5.20;2.60;;;14.60;99.90;;;;;;4977710;28;20541;-46
2021/06/13 05:23:52;;;;;;;7.03;2.33;;;14.60;99.90;;;;;;4978331;28;20525;-55
2021/06/13 05:26:19;;;;;;;7.17;2.30;;;14.60;99.90;;;;;;4980220;28;20517;-52
2021/06/13 05:28:46;;;;;;;5.50;2.67;;;14.60;99.90;;;;;;4977574;28;20443;-50
2021/06/13 05:31:14;;;;;;;5.37;2.60;;;14.60;99.90;;;;;;4977612;28;20804;-47
2021/06/13 05:33:40;;;;;;;8.73;2.60;;;14.60;99.90;;;;;;4978818;28;20477;-48
2021/06/13 05:36:07;;;;;;;6.07;2.33;;;14.50;99.90;;;;;;4979636;28;20467;-49
2021/06/13 05:38:34;;;;;;;8.93;2.60;;;14.60;99.90;;;;;;4979647;28;20845;-47
2021/06/13 05:41:01;;;;;;;7.77;3.13;;;14.60;99.90;;;;;;4981672;28;20451;-51
2021/06/13 05:43:27;;;;;;;3.80;2.40;;;14.60;99.90;;;;;;4980529;28;20450;-47
2021/06/13 05:45:54;;;;;;;7.73;2.57;;;14.60;99.90;;;;;;5003484;28;20489;-48
2021/06/13 05:48:22;;;;;;;10.43;2.80;;;14.70;99.90;;;;;;5004457;28;20450;-50
2021/06/13 05:50:49;;;;;;;7.43;2.80;;;14.70;99.90;;;;;;5002281;28;20867;-48
2021/06/13 05:53:15;;;;;;;6.80;3.27;;;14.70;99.90;;;;;;4999947;28;20539;-47
2021/06/13 05:55:42;;;;;;;7.27;3.43;;;14.80;99.90;;;;;;5000164;28;20442;-47
2021/06/13 05:58:09;;;;;;;17.37;3.53;;;14.70;99.90;;;;;;5000374;28;20456;-48
2021/06/13 06:00:38;;;;;;;7.40;2.70;;;14.80;99.90;;;;;;5000690;28;20453;-46
2021/06/13 06:03:06;;;;;;;7.53;2.80;;;14.90;99.90;;;;;;5000265;28;20474;-44
2021/06/13 06:05:34;;;;;;;5.63;2.80;;;15.00;99.90;;;;;;4998984;28;20824;-43
2021/06/13 06:08:02;;;;;;;8.07;2.70;;;15.00;99.90;;;;;;4999398;28;20442;-43
2021/06/13 06:10:31;;;;;;;9.03;2.70;;;15.10;99.90;;;;;;4984633;28;20501;-43
2021/06/13 06:13:00;;;;;;;6.93;2.90;;;15.10;99.90;;;;;;4980496;28;20513;-43
2021/06/13 06:15:28;;;;;;;7.23;2.53;;;15.10;99.90;;;;;;4980357;28;20485;-43
2021/06/13 06:17:55;;;;;;;7.63;2.57;;;15.10;99.90;;;;;;4982205;28;20454;-42
2021/06/13 06:20:25;;;;;;;7.60;2.80;;;15.10;99.90;;;;;;4976830;28;20483;-43
2021/06/13 06:22:55;;;;;;;6.83;2.87;;;15.20;99.90;;;;;;4980262;28;20447;-43
2021/06/13 06:25:22;;;;;;;5.63;2.10;;;15.20;99.90;;;;;;4979837;28;20463;-44
2021/06/13 06:27:50;;;;;;;5.07;2.50;;;15.20;99.90;;;;;;4979976;28;20538;-45
2021/06/13 06:30:17;;;;;;;6.63;2.00;;;15.20;99.90;;;;;;4981112;28;20457;-42
2021/06/13 06:32:44;;;;;;;13.33;3.33;;;15.10;99.90;;;;;;4979216;28;20451;-43
2021/06/13 06:35:12;;;;;;;9.33;2.70;;;15.00;99.90;;;;;;4979299;28;20459;-45
2021/06/13 06:37:41;;;;;;;8.00;2.63;;;15.10;99.90;;;;;;4978968;28;20457;-43
2021/06/13 06:40:12;;;;;;;5.77;2.30;;;15.10;99.90;;;;;;4978651;28;20489;-43
2021/06/13 06:42:38;;;;;;;5.20;2.67;;;15.20;99.90;;;;;;4982162;28;20455;-42
2021/06/13 06:45:06;;;;;;;11.97;2.80;;;15.20;99.90;;;;;;4977779;28;20518;-42
2021/06/13 06:47:33;;;;;;;10.30;2.80;;;15.10;99.90;;;;;;4982359;28;20446;-42
2021/06/13 06:50:00;;;;;;;6.20;2.53;;;15.10;99.90;;;;;;4991514;28;20903;-43
2021/06/13 06:52:27;;;;;;;9.40;4.47;;;15.10;99.90;;;;;;4995273;28;20974;-43
2021/06/13 06:54:53;;;;;;;6.90;3.17;;;15.30;99.90;;;;;;4981759;28;20501;-42
2021/06/13 06:57:22;;;;;;;10.10;2.53;;;15.30;99.90;;;;;;4987871;28;20776;-44
2021/06/13 06:59:48;;;;;;;5.53;2.60;;;15.40;99.90;;;;;;4988491;28;20496;-44
2021/06/13 07:02:15;;;;;;;5.50;2.60;;;15.40;99.90;;;;;;4995874;28;20445;-42
2021/06/13 07:04:42;;;;;;;12.67;2.90;;;15.40;99.90;;;;;;4978310;28;20434;-43
2021/06/13 07:07:09;;;;;;;6.93;2.77;;;15.50;99.90;;;;;;4982364;28;20462;-42
2021/06/13 07:09:36;;;;;;;7.53;2.83;;;15.60;99.90;;;;;;4987672;28;20457;-43
2021/06/13 07:12:03;;;;;;;9.43;3.23;;;15.60;99.90;;;;;;4991470;28;20533;-45
2021/06/13 07:14:31;;;;;;;6.07;3.10;;;15.60;99.90;;;;;;4987984;28;20434;-43
2021/06/13 07:16:57;;;;;;;5.33;3.17;;;15.60;99.90;;;;;;4988761;28;20530;-43
2021/06/13 07:19:24;;;;;;;8.60;3.17;;;15.70;99.90;;;;;;4996986;28;20501;-44
2021/06/13 07:21:50;;;;;;;4.87;2.10;;;15.80;99.90;;;;;;4994876;28;20449;-43
2021/06/13 07:24:17;;;;;;;13.90;3.43;;;16.00;99.90;;;;;;4997692;28;20516;-43
2021/06/13 07:26:44;;;;;;;6.70;3.10;;;16.10;99.90;;;;;;4995462;28;20977;-43
2021/06/13 07:29:13;;;;;;;6.40;3.00;;;16.30;99.90;;;;;;4995598;28;20473;-43
2021/06/13 07:31:41;;;;;;;10.33;3.10;;;16.50;99.90;;;;;;4995129;28;20513;-43
2021/06/13 07:34:08;;;;;;;3.30;2.13;;;16.70;99.90;;;;;;4995394;28;20945;-44
2021/06/13 07:36:37;;;;;;;10.60;3.13;;;16.80;99.90;;;;;;4987900;28;20516;-44
2021/06/13 07:39:05;;;;;;;6.53;2.90;;;16.90;99.90;;;;;;5006125;28;20479;-41
2021/06/13 07:41:37;;;;;;;7.87;2.67;;;16.90;99.90;;;;;;4998242;28;20455;-41
2021/06/13 07:44:04;;;;;;;9.23;2.50;;;16.90;99.90;;;;;;4999498;28;20446;-42
2021/06/13 07:46:33;;;;;;;9.87;3.10;;;16.90;99.90;;;;;;4998876;28;20453;-44
2021/06/13 07:49:01;;;;;;;7.47;2.50;;;17.10;99.90;;;;;;4974857;28;20510;-41
2021/06/13 07:51:28;;;;;;;4.67;2.10;;;17.10;99.90;;;;;;4976433;28;20518;-42
2021/06/13 07:53:54;;;;;;;5.37;2.00;;;17.10;99.90;;;;;;4985384;28;20803;-43
2021/06/13 07:56:21;;;;;;;4.40;2.70;;;17.10;99.90;;;;;;4983760;28;20498;-43
2021/06/13 07:58:48;;;;;;;4.77;3.40;;;16.90;99.90;;;;;;4975748;28;20486;-44
2021/06/13 08:01:15;;;;;;;11.07;3.07;;;16.70;99.90;;;;;;5004026;28;20453;-44
2021/06/13 08:03:42;;;;;;;5.37;2.87;;;16.70;99.90;;;;;;4998564;28;20467;-44
2021/06/13 08:06:10;;;;;;;5.63;2.27;;;16.70;99.90;;;;;;4994149;28;20450;-43
2021/06/13 08:08:36;;;;;;;6.63;2.77;;;16.60;99.90;;;;;;4993656;28;20462;-42
2021/06/13 08:11:04;;;;;;;15.37;3.00;;;16.60;99.90;;;;;;4990327;28;20450;-43
2021/06/13 08:13:31;;;;;;;8.90;2.67;;;16.50;99.90;;;;;;4994151;28;20787;-47
2021/06/13 08:15:57;;;;;;;11.47;2.97;;;16.50;99.90;;;;;;4994737;28;20446;-43
2021/06/13 08:18:24;;;;;;;14.70;3.37;;;16.40;99.90;;;;;;4994456;28;20446;-46
2021/06/13 08:20:51;;;;;;;5.30;2.13;;;16.50;99.90;;;;;;4993681;28;20473;-45
2021/06/13 08:23:19;;;;;;;4.93;2.17;;;16.40;99.90;;;;;;4994371;28;20446;-45
2021/06/13 08:25:46;;;;;;;7.40;2.43;;;16.40;99.90;;;;;;4991974;28;20445;-43
2021/06/13 08:28:13;;;;;;;9.77;3.03;;;16.50;99.90;;;;;;4976690;28;20455;-43
2021/06/13 08:30:40;;;;;;;6.20;2.80;;;16.60;99.90;;;;;;4982855;28;20924;-42
2021/06/13 08:33:07;;;;;;;4.57;2.10;;;16.60;99.90;;;;;;4996932;28;20805;-42
2021/06/13 08:35:34;;;;;;;4.80;2.27;;;16.80;99.90;;;;;;4994130;28;20482;-48
2021/06/13 08:38:02;;;;;;;6.60;2.33;;;16.80;99.90;;;;;;4993921;28;20446;-45
2021/06/13 08:40:31;;;;;;;3.60;2.87;;;17.10;99.90;;;;;;4985630;28;20478;-46
2021/06/13 08:42:59;;;;;;;8.77;2.53;;;17.40;99.90;;;;;;4982609;28;20454;-44
2021/06/13 08:45:26;;;;;;;5.50;2.40;;;17.40;99.90;;;;;;4988646;28;20461;-42
2021/06/13 08:47:55;;;;;;;4.40;2.27;;;17.70;99.90;;;;;;4986612;28;20466;-43
2021/06/13 08:50:22;;;;;;;5.27;2.30;;;17.70;99.90;;;;;;4987327;28;20453;-43
2021/06/13 08:52:50;;;;;;;9.60;3.20;;;17.80;99.90;;;;;;4988656;28;21103;-43
2021/06/13 08:55:17;;;;;;;4.83;2.43;;;17.90;99.90;;;;;;4987341;28;20517;-43
2021/06/13 08:57:45;;;;;;;3.70;2.13;;;18.00;99.90;;;;;;4983233;28;20465;-42
2021/06/13 09:00:14;;;;;;;6.30;2.93;;;18.10;99.90;;;;;;4989003;28;20956;-42
2021/06/13 09:02:41;;;;;;;9.00;3.13;;;18.10;99.90;;;;;;4996092;28;20450;-42
2021/06/13 09:05:08;;;;;;;9.57;3.70;;;18.00;99.90;;;;;;4996101;28;20517;-43
2021/06/13 09:07:35;;;;;;;4.00;2.40;;;17.80;99.90;;;;;;4995455;28;20793;-42
2021/06/13 09:10:09;;;;;;;6.67;2.47;;;17.60;99.90;;;;;;4995482;28;20780;-41
2021/06/13 09:12:36;;;;;;;12.30;3.50;;;17.40;99.90;;;;;;4993598;28;20453;-41
2021/06/13 09:15:06;;;;;;;7.40;2.90;;;17.30;99.90;;;;;;4998416;28;20481;-43
2021/06/13 09:17:33;;;;;;;10.20;4.10;;;17.20;99.90;;;;;;4999140;28;20508;-42
2021/06/13 09:20:06;;;;;;;10.93;3.67;;;17.10;99.90;;;;;;4997989;28;20485;-41
2021/06/13 09:22:33;;;;;;;4.13;2.77;;;17.00;99.90;;;;;;4997460;28;20537;-46
2021/06/13 09:25:12;;;;;;;10.63;3.83;;;16.90;99.90;;;;;;4997283;28;20840;-42
2021/06/13 09:27:39;;;;;;;7.00;2.60;;;16.80;99.90;;;;;;4997411;28;20438;-42
2021/06/13 09:30:09;;;;;;;5.63;2.90;;;16.80;99.90;;;;;;4996926;28;20497;-44
2021/06/13 09:33:01;;;;;;;7.10;4.03;;;16.70;99.90;;;;;;4997455;28;20936;-42
2021/06/13 09:35:30;;;;;;;10.43;2.50;;;16.70;99.90;;;;;;4997349;28;20446;-42
2021/06/13 09:38:11;;;;;;;10.53;3.20;;;16.50;99.90;;;;;;4996854;28;21058;-43
2021/06/13 09:40:39;;;;;;;8.40;3.27;;;16.40;99.90;;;;;;4996698;28;20489;-43
2021/06/13 09:43:15;;;;;;;8.40;4.07;;;16.30;99.90;;;;;;4997344;28;20579;-43
2021/06/13 09:45:52;;;;;;;8.97;3.47;;;16.20;99.90;;;;;;4997054;28;20453;-43
2021/06/13 09:48:20;;;;;;;9.70;4.33;;;16.10;99.90;;;;;;4999234;28;20861;-41
2021/06/13 09:50:49;;;;;;;8.93;3.70;;;16.00;99.90;;;;;;4996564;28;20572;-43
2021/06/13 09:53:36;;;;;;;10.97;3.57;;;15.90;99.90;;;;;;4986273;28;20599;-45
2021/06/13 09:56:07;;;;;;;8.47;3.57;;;15.80;99.90;;;;;;4992517;28;20434;-43
2021/06/13 09:58:46;;;;;;;5.97;3.90;;;15.80;99.90;;;;;;4996540;28;20442;-44
2021/06/13 10:01:14;;;;;;;6.50;2.80;;;15.90;99.90;;;;;;4996774;28;20778;-41
2021/06/13 10:03:41;;;;;;;5.90;2.53;;;16.00;99.90;;;;;;4996773;28;20449;-41
2021/06/13 10:06:09;;;;;;;10.93;2.90;;;16.10;99.90;;;;;;4996902;28;20812;-44
2021/06/13 10:08:37;;;;;;;3.50;2.57;;;16.30;99.90;;;;;;4996937;28;20521;-41
2021/06/13 10:11:05;;;;;;;14.63;3.13;;;16.50;99.90;;;;;;4996588;28;20450;-41
2021/06/13 10:13:51;;;;;;;7.10;2.87;;;16.70;99.90;;;;;;4993673;28;20462;-42
2021/06/13 10:16:31;;;;;;;5.80;2.37;;;17.00;99.90;;;;;;4995007;28;20438;-43
2021/06/13 10:19:00;;;;;;;6.53;4.17;;;17.40;99.90;;;;;;5009630;28;20446;-42
2021/06/13 10:21:31;;;;;;;3.97;2.33;;;17.80;99.90;;;;;;5003819;28;20534;-42
2021/06/13 10:23:59;;;;;;;7.30;2.80;;;17.80;99.90;;;;;;4996521;28;20467;-43
2021/06/13 10:26:26;;;;;;;8.83;3.30;;;17.90;99.90;;;;;;5001092;28;20446;-42
2021/06/13 10:28:53;;;;;;;6.30;3.50;;;17.90;99.90;;;;;;5008392;28;20458;-43
2021/06/13 10:31:32;;;;;;;6.20;2.90;;;17.90;99.90;;;;;;5009974;28;20467;-43
2021/06/13 10:33:59;;;;;;;8.73;2.53;;;17.90;99.90;;;;;;5010055;28;20461;-42
2021/06/13 10:36:26;;;;;;;5.20;2.60;;;17.80;99.90;;;;;;5001818;28;20439;-42
2021/06/13 10:38:52;;;;;;;4.63;2.53;;;17.70;99.90;;;;;;5001945;28;20478;-42
2021/06/13 10:41:19;;;;;;;8.70;3.50;;;17.60;99.90;;;;;;5000469;28;20545;-42
2021/06/13 10:44:00;;;;;;;9.53;2.93;;;17.60;99.90;;;;;;5000585;28;20442;-45
2021/06/13 10:46:29;;;;;;;4.63;2.40;;;17.50;99.90;;;;;;5010345;28;20522;-43
2021/06/13 10:48:59;;;;;;;4.90;2.67;;;17.50;99.90;;;;;;5009110;28;20430;-43
2021/06/13 10:51:36;;;;;;;7.73;2.83;;;17.40;99.90;;;;;;5008557;28;20458;-44
2021/06/13 10:54:21;;;;;;;8.90;3.47;;;17.30;99.90;;;;;;5003161;28;20466;-42
2021/06/13 10:56:48;;;;;;;7.33;2.87;;;17.30;99.90;;;;;;5001578;28;20458;-42
2021/06/13 10:59:17;;;;;;;7.00;2.67;;;17.50;99.90;;;;;;4994596;28;20745;-42
2021/06/13 11:01:58;;;;;;;7.83;2.97;;;17.70;99.90;;;;;;5004853;28;20573;-41
2021/06/13 11:04:42;;;;;;;5.67;3.10;;;18.00;99.90;;;;;;4997296;28;20443;-41
2021/06/13 11:07:09;;;;;;;4.87;2.90;;;18.10;99.90;;;;;;5000223;28;20830;-41
2021/06/13 11:10:13;;;;;;;9.37;3.30;;;18.20;99.90;;;;;;5010807;28;20426;-43
2021/06/13 11:12:42;;;;;;;7.77;2.97;;;18.20;99.90;;;;;;5001025;28;20470;-41
2021/06/13 11:15:10;;;;;;;5.97;2.97;;;18.30;99.90;;;;;;5006436;28;20449;-41
2021/06/13 11:17:53;;;;;;;6.37;3.83;;;18.30;99.90;;;;;;5002563;28;20438;-42
2021/06/13 11:20:36;;;;;;;8.03;3.33;;;18.30;99.90;;;;;;4993871;28;20475;-43
2021/06/13 11:23:05;;;;;;;10.73;3.90;;;18.20;99.90;;;;;;4990098;28;20443;-43
2021/06/13 11:25:32;;;;;;;8.63;3.10;;;18.10;99.90;;;;;;4999646;28;20444;-45
2021/06/13 11:28:15;;;;;;;11.23;3.43;;;18.10;99.90;;;;;;5000064;28;20446;-42
2021/06/13 11:30:44;;;;;;;10.37;3.57;;;18.20;99.90;;;;;;5008001;28;20474;-42
2021/06/13 11:33:11;;;;;;;4.50;2.93;;;18.30;99.90;;;;;;5001761;28;20538;-42
2021/06/13 11:35:46;;;;;;;9.43;3.93;;;18.40;99.90;;;;;;5005188;28;20449;-41
2021/06/13 11:38:27;;;;;;;9.47;4.70;;;18.40;99.90;;;;;;4998514;28;20498;-42
2021/06/13 11:40:55;;;;;;;8.53;4.50;;;18.50;99.90;;;;;;5003723;28;20501;-43
2021/06/13 11:43:23;;;;;;;9.40;4.27;;;18.60;99.90;;;;;;4995475;28;21245;-43
2021/06/13 11:45:55;;;;;;;7.67;3.87;;;18.70;99.90;;;;;;5006190;28;20486;-43
2021/06/13 11:48:23;;;;;;;5.90;3.90;;;18.90;99.90;;;;;;5001149;28;21101;-43
2021/06/13 11:51:11;;;;;;;6.03;4.30;;;19.10;99.90;;;;;;5008176;28;20610;-44
2021/06/13 11:53:55;;;;;;;8.60;3.53;;;19.30;99.90;;;;;;4995522;28;20462;-43
2021/06/13 11:56:44;;;;;;;7.20;3.80;;;19.50;98.40;;;;;;4999009;28;20430;-42
2021/06/13 11:59:15;;;;;;;6.40;3.70;;;19.60;97.90;;;;;;4999360;28;20437;-43
2021/06/13 12:01:45;;;;;;;3.40;2.97;;;19.70;96.30;;;;;;4997337;28;20467;-43
2021/06/13 12:04:14;;;;;;;4.80;3.43;;;19.70;96.20;;;;;;5002083;28;20454;-43
2021/06/13 12:06:46;;;;;;;11.53;3.73;;;19.50;96.20;;;;;;5005034;28;20430;-42
2021/06/13 12:09:16;;;;;;;7.83;3.93;;;19.50;96.50;;;;;;4998342;28;20434;-42
2021/06/13 12:11:45;;;;;;;10.07;4.90;;;19.50;96.70;;;;;;4995738;28;20458;-43
2021/06/13 12:14:31;;;;;;;8.03;3.10;;;19.50;96.70;;;;;;4995090;28;20836;-42
2021/06/13 12:17:00;;;;;;;8.07;4.30;;;19.50;96.60;;;;;;4995217;28;20446;-42
2021/06/13 12:19:32;;;;;;;8.50;4.43;;;19.70;96.40;;;;;;4999231;28;20459;-44
2021/06/13 12:22:27;;;;;;;13.53;3.50;;;20.00;96.30;;;;;;4999228;28;20909;-42
2021/06/13 12:27:43;;;;;;;6.47;3.17;;;20.40;94.20;;;;;;4991340;28;20522;-44
2021/06/13 12:30:14;;;;;;;7.17;3.63;;;20.40;93.50;;;;;;5001725;28;20443;-43
2021/06/13 12:32:42;;;;;;;10.70;4.00;;;20.50;92.70;;;;;;5004001;28;20450;-43
2021/06/13 12:35:12;;;;;;;7.30;3.80;;;20.60;93.20;;;;;;5000579;28;20481;-45
2021/06/13 12:37:42;;;;;;;10.10;4.00;;;20.70;92.60;;;;;;5000619;28;20449;-44
2021/06/13 12:40:11;;;;;;;7.03;3.43;;;20.90;93.20;;;;;;4997056;28;20446;-43
2021/06/13 12:42:39;;;;;;;4.03;3.00;;;20.90;92.10;;;;;;4996145;28;20454;-43
2021/06/13 12:45:10;;;;;;;6.17;3.80;;;20.90;91.40;;;;;;4999846;28;20445;-45
2021/06/13 12:47:38;;;;;;;5.77;3.40;;;20.60;90.70;;;;;;4997049;28;20438;-43
2021/06/13 12:50:08;;;;;;;6.27;3.10;;;20.40;91.40;;;;;;4996510;28;20932;-43
2021/06/13 12:52:36;;;;;;;3.80;2.70;;;20.40;91.40;;;;;;5013741;28;20469;-43
2021/06/13 12:55:07;;;;;;;4.40;3.57;;;20.50;91.10;;;;;;5007462;28;20450;-43
2021/06/13 12:57:36;;;;;;;5.80;3.57;;;20.70;91.40;;;;;;5003174;28;20446;-43
2021/06/13 13:00:04;;;;;;;7.97;4.07;;;20.70;90.70;;;;;;5013192;28;20458;-43